sensor_id;sensor_type;location;lat;lon;timestamp;P1;durP1;ratioP1;P2;durP2;ratioP2
8737;SDS011;4405;49.272;8.590;2022-08-20T00:01:02;5.07;;;4.67;;
8737;SDS011;4405;49.272;8.590;2022-08-20T00:03:30;7.97;;;5.80;;
8737;SDS011;4405;49.272;8.590;2022-08-20T00:06:00;5.83;;;5.20;;
8737;SDS011;4405;49.272;8.590;2022-08-20T00:08:26;5.50;;;5.10;;
8737;SDS011;4405;49.272;8.590;2022-08-20T00:10:53;5.00;;;4.60;;
8737;SDS011;4405;49.272;8.590;2022-08-20T00:13:21;4.10;;;3.80;;
8737;SDS011;4405;49.272;8.590;2022-08-20T00:15:49;4.30;;;3.90;;
8737;SDS011;4405;49.272;8.590;2022-08-20T00:18:15;4.53;;;4.23;;
8737;SDS011;4405;49.272;8.590;2022-08-20T00:20:42;3.97;;;3.73;;
8737;SDS011;4405;49.272;8.590;2022-08-20T00:23:10;4.10;;;3.77;;
8737;SDS011;4405;49.272;8.590;2022-08-20T00:25:37;4.27;;;3.93;;
8737;SDS011;4405;49.272;8.590;2022-08-20T00:28:04;4.37;;;3.97;;
8737;SDS011;4405;49.272;8.590;2022-08-20T00:30:32;3.73;;;3.53;;
8737;SDS011;4405;49.272;8.590;2022-08-20T00:32:59;4.10;;;3.80;;
8737;SDS011;4405;49.272;8.590;2022-08-20T00:35:30;4.23;;;3.93;;
8737;SDS011;4405;49.272;8.590;2022-08-20T00:37:56;4.00;;;3.70;;
8737;SDS011;4405;49.272;8.590;2022-08-20T00:40:25;3.63;;;3.43;;
8737;SDS011;4405;49.272;8.590;2022-08-20T00:42:54;3.33;;;3.13;;
8737;SDS011;4405;49.272;8.590;2022-08-20T00:45:21;3.13;;;2.93;;
8737;SDS011;4405;49.272;8.590;2022-08-20T00:47:48;3.27;;;3.00;;
8737;SDS011;4405;49.272;8.590;2022-08-20T00:50:15;3.17;;;3.07;;
8737;SDS011;4405;49.272;8.590;2022-08-20T00:52:42;3.00;;;2.90;;
8737;SDS011;4405;49.272;8.590;2022-08-20T00:55:09;5.80;;;3.10;;
8737;SDS011;4405;49.272;8.590;2022-08-20T00:57:40;4.10;;;3.80;;
8737;SDS011;4405;49.272;8.590;2022-08-20T01:00:10;5.10;;;4.73;;
8737;SDS011;4405;49.272;8.590;2022-08-20T01:02:37;5.00;;;4.70;;
8737;SDS011;4405;49.272;8.590;2022-08-20T01:05:05;4.77;;;4.37;;
8737;SDS011;4405;49.272;8.590;2022-08-20T01:07:32;4.30;;;4.10;;
8737;SDS011;4405;49.272;8.590;2022-08-20T01:10:02;5.53;;;3.93;;
8737;SDS011;4405;49.272;8.590;2022-08-20T01:12:29;4.37;;;3.97;;
8737;SDS011;4405;49.272;8.590;2022-08-20T01:14:58;5.20;;;3.43;;
8737;SDS011;4405;49.272;8.590;2022-08-20T01:17:25;4.00;;;3.80;;
8737;SDS011;4405;49.272;8.590;2022-08-20T01:19:54;4.37;;;4.07;;
8737;SDS011;4405;49.272;8.590;2022-08-20T01:22:24;3.70;;;3.40;;
8737;SDS011;4405;49.272;8.590;2022-08-20T01:25:11;3.03;;;2.90;;
8737;SDS011;4405;49.272;8.590;2022-08-20T01:27:41;3.37;;;3.17;;
8737;SDS011;4405;49.272;8.590;2022-08-20T01:30:09;2.60;;;2.50;;
8737;SDS011;4405;49.272;8.590;2022-08-20T01:32:35;2.60;;;2.50;;
8737;SDS011;4405;49.272;8.590;2022-08-20T01:35:02;2.70;;;2.50;;
8737;SDS011;4405;49.272;8.590;2022-08-20T01:37:28;2.77;;;2.40;;
8737;SDS011;4405;49.272;8.590;2022-08-20T01:39:55;2.67;;;2.53;;
8737;SDS011;4405;49.272;8.590;2022-08-20T01:42:22;2.40;;;2.30;;
8737;SDS011;4405;49.272;8.590;2022-08-20T01:44:53;2.40;;;2.30;;
8737;SDS011;4405;49.272;8.590;2022-08-20T01:47:21;2.40;;;2.30;;
8737;SDS011;4405;49.272;8.590;2022-08-20T01:49:50;2.43;;;2.23;;
8737;SDS011;4405;49.272;8.590;2022-08-20T01:52:19;2.37;;;2.17;;
8737;SDS011;4405;49.272;8.590;2022-08-20T01:54:47;2.40;;;2.20;;
8737;SDS011;4405;49.272;8.590;2022-08-20T01:57:14;2.27;;;2.27;;
8737;SDS011;4405;49.272;8.590;2022-08-20T01:59:41;2.40;;;2.30;;
8737;SDS011;4405;49.272;8.590;2022-08-20T02:02:11;2.70;;;2.30;;
8737;SDS011;4405;49.272;8.590;2022-08-20T02:04:39;2.83;;;2.60;;
8737;SDS011;4405;49.272;8.590;2022-08-20T02:07:06;2.37;;;2.27;;
8737;SDS011;4405;49.272;8.590;2022-08-20T02:09:34;2.57;;;2.47;;
8737;SDS011;4405;49.272;8.590;2022-08-20T02:12:02;3.47;;;3.00;;
8737;SDS011;4405;49.272;8.590;2022-08-20T02:14:30;2.90;;;2.80;;
8737;SDS011;4405;49.272;8.590;2022-08-20T02:16:56;3.17;;;3.07;;
8737;SDS011;4405;49.272;8.590;2022-08-20T02:19:27;3.83;;;3.57;;
8737;SDS011;4405;49.272;8.590;2022-08-20T02:21:55;3.60;;;3.03;;
8737;SDS011;4405;49.272;8.590;2022-08-20T02:24:22;3.07;;;2.87;;
8737;SDS011;4405;49.272;8.590;2022-08-20T02:26:48;3.30;;;2.93;;
8737;SDS011;4405;49.272;8.590;2022-08-20T02:29:15;2.77;;;2.60;;
8737;SDS011;4405;49.272;8.590;2022-08-20T02:31:42;2.97;;;2.33;;
8737;SDS011;4405;49.272;8.590;2022-08-20T02:34:09;2.13;;;2.03;;
8737;SDS011;4405;49.272;8.590;2022-08-20T02:36:37;2.17;;;2.17;;
8737;SDS011;4405;49.272;8.590;2022-08-20T02:39:04;2.10;;;2.00;;
8737;SDS011;4405;49.272;8.590;2022-08-20T02:41:31;3.87;;;2.23;;
8737;SDS011;4405;49.272;8.590;2022-08-20T02:43:58;2.50;;;2.30;;
8737;SDS011;4405;49.272;8.590;2022-08-20T02:46:24;2.30;;;2.10;;
8737;SDS011;4405;49.272;8.590;2022-08-20T02:48:52;3.33;;;2.20;;
8737;SDS011;4405;49.272;8.590;2022-08-20T02:51:18;2.97;;;2.50;;
8737;SDS011;4405;49.272;8.590;2022-08-20T02:53:46;2.40;;;2.30;;
8737;SDS011;4405;49.272;8.590;2022-08-20T02:56:14;2.30;;;2.30;;
8737;SDS011;4405;49.272;8.590;2022-08-20T02:58:41;2.57;;;2.47;;
8737;SDS011;4405;49.272;8.590;2022-08-20T03:01:10;3.23;;;2.47;;
8737;SDS011;4405;49.272;8.590;2022-08-20T03:03:37;3.93;;;2.63;;
8737;SDS011;4405;49.272;8.590;2022-08-20T03:06:05;3.77;;;2.47;;
8737;SDS011;4405;49.272;8.590;2022-08-20T03:08:32;2.73;;;2.63;;
8737;SDS011;4405;49.272;8.590;2022-08-20T03:11:00;3.00;;;2.83;;
8737;SDS011;4405;49.272;8.590;2022-08-20T03:13:26;3.27;;;2.83;;
8737;SDS011;4405;49.272;8.590;2022-08-20T03:15:53;3.13;;;2.93;;
8737;SDS011;4405;49.272;8.590;2022-08-20T03:18:21;3.20;;;3.00;;
8737;SDS011;4405;49.272;8.590;2022-08-20T03:20:48;3.33;;;3.03;;
8737;SDS011;4405;49.272;8.590;2022-08-20T03:23:15;3.00;;;2.70;;
8737;SDS011;4405;49.272;8.590;2022-08-20T03:25:43;3.13;;;2.93;;
8737;SDS011;4405;49.272;8.590;2022-08-20T03:28:11;3.40;;;3.23;;
8737;SDS011;4405;49.272;8.590;2022-08-20T03:30:38;4.63;;;3.13;;
8737;SDS011;4405;49.272;8.590;2022-08-20T03:33:08;3.10;;;2.90;;
8737;SDS011;4405;49.272;8.590;2022-08-20T03:35:34;3.00;;;2.80;;
8737;SDS011;4405;49.272;8.590;2022-08-20T03:38:04;2.57;;;2.47;;
8737;SDS011;4405;49.272;8.590;2022-08-20T03:40:31;2.40;;;2.30;;
8737;SDS011;4405;49.272;8.590;2022-08-20T03:42:58;2.33;;;2.20;;
8737;SDS011;4405;49.272;8.590;2022-08-20T03:45:26;2.73;;;2.63;;
8737;SDS011;4405;49.272;8.590;2022-08-20T03:47:53;3.70;;;2.60;;
8737;SDS011;4405;49.272;8.590;2022-08-20T03:50:22;2.57;;;2.50;;
8737;SDS011;4405;49.272;8.590;2022-08-20T03:52:49;2.53;;;2.33;;
8737;SDS011;4405;49.272;8.590;2022-08-20T03:55:15;2.73;;;2.50;;
8737;SDS011;4405;49.272;8.590;2022-08-20T03:57:43;2.47;;;2.37;;
8737;SDS011;4405;49.272;8.590;2022-08-20T04:00:10;2.53;;;2.43;;
8737;SDS011;4405;49.272;8.590;2022-08-20T04:02:38;2.60;;;2.40;;
8737;SDS011;4405;49.272;8.590;2022-08-20T04:05:05;2.60;;;2.40;;
8737;SDS011;4405;49.272;8.590;2022-08-20T04:07:32;2.17;;;2.17;;
8737;SDS011;4405;49.272;8.590;2022-08-20T04:09:58;2.40;;;2.30;;
8737;SDS011;4405;49.272;8.590;2022-08-20T04:12:27;2.60;;;2.17;;
8737;SDS011;4405;49.272;8.590;2022-08-20T04:14:53;2.40;;;2.20;;
8737;SDS011;4405;49.272;8.590;2022-08-20T04:17:21;2.20;;;2.00;;
8737;SDS011;4405;49.272;8.590;2022-08-20T04:19:48;2.60;;;2.40;;
8737;SDS011;4405;49.272;8.590;2022-08-20T04:22:15;2.27;;;2.17;;
8737;SDS011;4405;49.272;8.590;2022-08-20T04:24:41;2.07;;;1.97;;
8737;SDS011;4405;49.272;8.590;2022-08-20T04:27:08;2.40;;;2.30;;
8737;SDS011;4405;49.272;8.590;2022-08-20T04:29:35;3.07;;;2.17;;
8737;SDS011;4405;49.272;8.590;2022-08-20T04:32:02;2.40;;;2.23;;
8737;SDS011;4405;49.272;8.590;2022-08-20T04:34:28;2.30;;;2.30;;
8737;SDS011;4405;49.272;8.590;2022-08-20T04:36:56;3.00;;;2.50;;
8737;SDS011;4405;49.272;8.590;2022-08-20T04:39:22;2.97;;;2.80;;
8737;SDS011;4405;49.272;8.590;2022-08-20T04:41:49;2.70;;;2.60;;
8737;SDS011;4405;49.272;8.590;2022-08-20T04:44:15;2.60;;;2.40;;
8737;SDS011;4405;49.272;8.590;2022-08-20T04:46:42;2.80;;;2.70;;
8737;SDS011;4405;49.272;8.590;2022-08-20T04:49:08;2.40;;;2.30;;
8737;SDS011;4405;49.272;8.590;2022-08-20T04:51:35;2.47;;;2.27;;
8737;SDS011;4405;49.272;8.590;2022-08-20T04:54:02;2.50;;;2.20;;
8737;SDS011;4405;49.272;8.590;2022-08-20T04:56:30;3.10;;;2.30;;
8737;SDS011;4405;49.272;8.590;2022-08-20T04:58:59;2.40;;;2.30;;
8737;SDS011;4405;49.272;8.590;2022-08-20T05:01:26;3.90;;;2.10;;
8737;SDS011;4405;49.272;8.590;2022-08-20T05:03:55;2.50;;;2.30;;
8737;SDS011;4405;49.272;8.590;2022-08-20T05:06:22;2.47;;;2.10;;
8737;SDS011;4405;49.272;8.590;2022-08-20T05:08:49;3.33;;;2.47;;
8737;SDS011;4405;49.272;8.590;2022-08-20T05:11:16;3.70;;;2.50;;
8737;SDS011;4405;49.272;8.590;2022-08-20T05:13:46;2.40;;;2.30;;
8737;SDS011;4405;49.272;8.590;2022-08-20T05:16:12;2.73;;;2.57;;
8737;SDS011;4405;49.272;8.590;2022-08-20T05:18:41;2.67;;;2.57;;
8737;SDS011;4405;49.272;8.590;2022-08-20T05:21:09;3.03;;;2.40;;
8737;SDS011;4405;49.272;8.590;2022-08-20T05:23:36;2.47;;;2.33;;
8737;SDS011;4405;49.272;8.590;2022-08-20T05:26:03;2.30;;;2.20;;
8737;SDS011;4405;49.272;8.590;2022-08-20T05:28:33;2.90;;;2.60;;
8737;SDS011;4405;49.272;8.590;2022-08-20T05:31:00;2.80;;;2.60;;
8737;SDS011;4405;49.272;8.590;2022-08-20T05:33:28;2.60;;;2.50;;
8737;SDS011;4405;49.272;8.590;2022-08-20T05:35:55;2.93;;;2.70;;
8737;SDS011;4405;49.272;8.590;2022-08-20T05:38:23;3.07;;;2.47;;
8737;SDS011;4405;49.272;8.590;2022-08-20T05:40:50;2.97;;;2.60;;
8737;SDS011;4405;49.272;8.590;2022-08-20T05:43:16;4.03;;;2.80;;
8737;SDS011;4405;49.272;8.590;2022-08-20T05:45:44;2.73;;;2.63;;
8737;SDS011;4405;49.272;8.590;2022-08-20T05:48:11;3.90;;;2.63;;
8737;SDS011;4405;49.272;8.590;2022-08-20T05:50:39;3.23;;;2.93;;
8737;SDS011;4405;49.272;8.590;2022-08-20T05:53:06;3.20;;;2.90;;
8737;SDS011;4405;49.272;8.590;2022-08-20T05:55:37;3.03;;;2.73;;
8737;SDS011;4405;49.272;8.590;2022-08-20T05:58:04;3.10;;;2.90;;
8737;SDS011;4405;49.272;8.590;2022-08-20T06:00:32;3.00;;;2.73;;
8737;SDS011;4405;49.272;8.590;2022-08-20T06:03:00;4.23;;;2.80;;
8737;SDS011;4405;49.272;8.590;2022-08-20T06:05:44;2.93;;;2.73;;
8737;SDS011;4405;49.272;8.590;2022-08-20T06:08:11;3.87;;;2.93;;
8737;SDS011;4405;49.272;8.590;2022-08-20T06:10:37;3.20;;;2.90;;
8737;SDS011;4405;49.272;8.590;2022-08-20T06:13:05;3.07;;;2.83;;
8737;SDS011;4405;49.272;8.590;2022-08-20T06:15:31;4.63;;;2.93;;
8737;SDS011;4405;49.272;8.590;2022-08-20T06:17:58;2.70;;;2.60;;
8737;SDS011;4405;49.272;8.590;2022-08-20T06:20:26;3.17;;;2.90;;
8737;SDS011;4405;49.272;8.590;2022-08-20T06:22:53;4.70;;;3.27;;
8737;SDS011;4405;49.272;8.590;2022-08-20T06:25:19;4.13;;;3.03;;
8737;SDS011;4405;49.272;8.590;2022-08-20T06:27:47;3.23;;;2.93;;
8737;SDS011;4405;49.272;8.590;2022-08-20T06:30:14;3.40;;;3.10;;
8737;SDS011;4405;49.272;8.590;2022-08-20T06:32:41;3.50;;;3.20;;
8737;SDS011;4405;49.272;8.590;2022-08-20T06:35:08;3.00;;;2.80;;
8737;SDS011;4405;49.272;8.590;2022-08-20T06:37:37;3.73;;;2.90;;
8737;SDS011;4405;49.272;8.590;2022-08-20T06:40:05;6.43;;;3.00;;
8737;SDS011;4405;49.272;8.590;2022-08-20T06:42:32;3.57;;;2.90;;
8737;SDS011;4405;49.272;8.590;2022-08-20T06:44:59;3.20;;;2.90;;
8737;SDS011;4405;49.272;8.590;2022-08-20T06:47:28;3.40;;;3.10;;
8737;SDS011;4405;49.272;8.590;2022-08-20T06:49:56;3.20;;;2.93;;
8737;SDS011;4405;49.272;8.590;2022-08-20T06:52:23;6.17;;;3.27;;
8737;SDS011;4405;49.272;8.590;2022-08-20T06:54:51;8.50;;;3.40;;
8737;SDS011;4405;49.272;8.590;2022-08-20T06:57:18;7.13;;;3.10;;
8737;SDS011;4405;49.272;8.590;2022-08-20T06:59:44;3.40;;;3.10;;
8737;SDS011;4405;49.272;8.590;2022-08-20T07:02:11;3.70;;;3.23;;
8737;SDS011;4405;49.272;8.590;2022-08-20T07:04:38;5.47;;;3.20;;
8737;SDS011;4405;49.272;8.590;2022-08-20T07:07:04;15.63;;;4.00;;
8737;SDS011;4405;49.272;8.590;2022-08-20T07:09:31;5.00;;;2.77;;
8737;SDS011;4405;49.272;8.590;2022-08-20T07:12:01;4.60;;;3.20;;
8737;SDS011;4405;49.272;8.590;2022-08-20T07:14:28;3.20;;;3.00;;
8737;SDS011;4405;49.272;8.590;2022-08-20T07:16:54;3.40;;;3.10;;
8737;SDS011;4405;49.272;8.590;2022-08-20T07:19:20;4.20;;;3.07;;
8737;SDS011;4405;49.272;8.590;2022-08-20T07:21:47;3.20;;;2.90;;
8737;SDS011;4405;49.272;8.590;2022-08-20T07:24:14;2.87;;;2.67;;
8737;SDS011;4405;49.272;8.590;2022-08-20T07:26:40;3.33;;;3.10;;
8737;SDS011;4405;49.272;8.590;2022-08-20T07:29:09;3.07;;;2.93;;
8737;SDS011;4405;49.272;8.590;2022-08-20T07:31:35;4.53;;;3.10;;
8737;SDS011;4405;49.272;8.590;2022-08-20T07:34:19;3.13;;;2.87;;
8737;SDS011;4405;49.272;8.590;2022-08-20T07:36:45;4.33;;;2.77;;
8737;SDS011;4405;49.272;8.590;2022-08-20T07:39:14;3.17;;;3.00;;
8737;SDS011;4405;49.272;8.590;2022-08-20T07:41:40;3.20;;;3.00;;
8737;SDS011;4405;49.272;8.590;2022-08-20T07:44:06;3.07;;;2.87;;
8737;SDS011;4405;49.272;8.590;2022-08-20T07:46:37;3.00;;;2.80;;
8737;SDS011;4405;49.272;8.590;2022-08-20T07:49:04;3.13;;;2.93;;
8737;SDS011;4405;49.272;8.590;2022-08-20T07:51:33;3.00;;;2.80;;
8737;SDS011;4405;49.272;8.590;2022-08-20T07:54:03;6.23;;;3.10;;
8737;SDS011;4405;49.272;8.590;2022-08-20T07:56:30;5.73;;;3.10;;
8737;SDS011;4405;49.272;8.590;2022-08-20T07:58:58;3.67;;;3.07;;
8737;SDS011;4405;49.272;8.590;2022-08-20T08:01:26;2.97;;;2.77;;
8737;SDS011;4405;49.272;8.590;2022-08-20T08:03:55;3.83;;;2.90;;
8737;SDS011;4405;49.272;8.590;2022-08-20T08:06:23;3.03;;;2.83;;
8737;SDS011;4405;49.272;8.590;2022-08-20T08:08:49;3.53;;;3.07;;
8737;SDS011;4405;49.272;8.590;2022-08-20T08:11:16;3.20;;;3.00;;
8737;SDS011;4405;49.272;8.590;2022-08-20T08:13:43;2.93;;;2.80;;
8737;SDS011;4405;49.272;8.590;2022-08-20T08:16:10;3.33;;;3.03;;
8737;SDS011;4405;49.272;8.590;2022-08-20T08:18:38;3.07;;;2.80;;
8737;SDS011;4405;49.272;8.590;2022-08-20T08:21:07;2.70;;;2.60;;
8737;SDS011;4405;49.272;8.590;2022-08-20T08:23:33;3.07;;;2.87;;
8737;SDS011;4405;49.272;8.590;2022-08-20T08:26:00;3.17;;;2.97;;
8737;SDS011;4405;49.272;8.590;2022-08-20T08:28:26;4.53;;;3.23;;
8737;SDS011;4405;49.272;8.590;2022-08-20T08:30:53;2.97;;;2.77;;
8737;SDS011;4405;49.272;8.590;2022-08-20T08:33:20;2.57;;;2.37;;
8737;SDS011;4405;49.272;8.590;2022-08-20T08:35:53;4.13;;;2.50;;
8737;SDS011;4405;49.272;8.590;2022-08-20T08:38:21;2.47;;;2.37;;
8737;SDS011;4405;49.272;8.590;2022-08-20T08:40:49;2.80;;;2.60;;
8737;SDS011;4405;49.272;8.590;2022-08-20T08:43:18;3.33;;;3.13;;
8737;SDS011;4405;49.272;8.590;2022-08-20T08:45:46;2.63;;;2.43;;
8737;SDS011;4405;49.272;8.590;2022-08-20T08:48:16;2.60;;;2.50;;
8737;SDS011;4405;49.272;8.590;2022-08-20T08:50:45;2.80;;;2.70;;
8737;SDS011;4405;49.272;8.590;2022-08-20T08:53:15;2.93;;;2.73;;
8737;SDS011;4405;49.272;8.590;2022-08-20T08:55:44;2.60;;;2.53;;
8737;SDS011;4405;49.272;8.590;2022-08-20T08:58:11;3.20;;;3.00;;
8737;SDS011;4405;49.272;8.590;2022-08-20T09:00:37;3.00;;;2.80;;
8737;SDS011;4405;49.272;8.590;2022-08-20T09:03:08;2.87;;;2.77;;
8737;SDS011;4405;49.272;8.590;2022-08-20T09:05:37;4.37;;;3.00;;
8737;SDS011;4405;49.272;8.590;2022-08-20T09:08:05;2.90;;;2.80;;
8737;SDS011;4405;49.272;8.590;2022-08-20T09:10:32;3.00;;;2.80;;
8737;SDS011;4405;49.272;8.590;2022-08-20T09:13:00;2.83;;;2.63;;
8737;SDS011;4405;49.272;8.590;2022-08-20T09:15:27;3.20;;;2.93;;
8737;SDS011;4405;49.272;8.590;2022-08-20T09:17:54;2.90;;;2.70;;
8737;SDS011;4405;49.272;8.590;2022-08-20T09:20:23;2.70;;;2.50;;
8737;SDS011;4405;49.272;8.590;2022-08-20T09:22:49;2.23;;;2.00;;
8737;SDS011;4405;49.272;8.590;2022-08-20T09:25:16;2.10;;;2.00;;
8737;SDS011;4405;49.272;8.590;2022-08-20T09:27:42;1.80;;;1.70;;
8737;SDS011;4405;49.272;8.590;2022-08-20T09:30:11;2.33;;;2.23;;
8737;SDS011;4405;49.272;8.590;2022-08-20T09:32:39;2.00;;;1.90;;
8737;SDS011;4405;49.272;8.590;2022-08-20T09:35:06;1.97;;;1.90;;
8737;SDS011;4405;49.272;8.590;2022-08-20T09:37:33;3.00;;;2.80;;
8737;SDS011;4405;49.272;8.590;2022-08-20T09:39:59;3.80;;;2.87;;
8737;SDS011;4405;49.272;8.590;2022-08-20T09:42:26;2.80;;;2.70;;
8737;SDS011;4405;49.272;8.590;2022-08-20T09:44:53;2.77;;;2.40;;
8737;SDS011;4405;49.272;8.590;2022-08-20T09:47:21;2.70;;;2.50;;
8737;SDS011;4405;49.272;8.590;2022-08-20T09:49:48;2.73;;;2.60;;
8737;SDS011;4405;49.272;8.590;2022-08-20T09:52:17;3.20;;;2.33;;
8737;SDS011;4405;49.272;8.590;2022-08-20T09:54:47;2.30;;;2.20;;
8737;SDS011;4405;49.272;8.590;2022-08-20T09:57:14;2.97;;;2.57;;
8737;SDS011;4405;49.272;8.590;2022-08-20T09:59:40;2.53;;;1.93;;
8737;SDS011;4405;49.272;8.590;2022-08-20T10:02:07;3.43;;;2.20;;
8737;SDS011;4405;49.272;8.590;2022-08-20T10:04:35;3.00;;;2.67;;
8737;SDS011;4405;49.272;8.590;2022-08-20T10:07:02;4.03;;;2.37;;
8737;SDS011;4405;49.272;8.590;2022-08-20T10:09:32;4.77;;;2.50;;
8737;SDS011;4405;49.272;8.590;2022-08-20T10:11:58;3.63;;;2.40;;
8737;SDS011;4405;49.272;8.590;2022-08-20T10:14:26;3.43;;;2.30;;
8737;SDS011;4405;49.272;8.590;2022-08-20T10:16:53;3.50;;;2.17;;
8737;SDS011;4405;49.272;8.590;2022-08-20T10:19:20;3.23;;;2.53;;
8737;SDS011;4405;49.272;8.590;2022-08-20T10:21:47;2.40;;;2.30;;
8737;SDS011;4405;49.272;8.590;2022-08-20T10:24:14;2.40;;;2.20;;
8737;SDS011;4405;49.272;8.590;2022-08-20T10:26:42;3.60;;;2.30;;
8737;SDS011;4405;49.272;8.590;2022-08-20T10:29:08;2.10;;;1.90;;
8737;SDS011;4405;49.272;8.590;2022-08-20T10:31:34;2.30;;;2.10;;
8737;SDS011;4405;49.272;8.590;2022-08-20T10:34:06;2.17;;;2.07;;
8737;SDS011;4405;49.272;8.590;2022-08-20T10:36:35;2.00;;;2.00;;
8737;SDS011;4405;49.272;8.590;2022-08-20T10:39:03;1.90;;;1.80;;
8737;SDS011;4405;49.272;8.590;2022-08-20T10:41:29;1.67;;;1.67;;
8737;SDS011;4405;49.272;8.590;2022-08-20T10:43:55;1.60;;;1.60;;
8737;SDS011;4405;49.272;8.590;2022-08-20T10:46:22;1.70;;;1.60;;
8737;SDS011;4405;49.272;8.590;2022-08-20T10:48:48;1.40;;;1.40;;
8737;SDS011;4405;49.272;8.590;2022-08-20T10:51:15;1.40;;;1.40;;
8737;SDS011;4405;49.272;8.590;2022-08-20T10:53:41;1.60;;;1.50;;
8737;SDS011;4405;49.272;8.590;2022-08-20T10:56:09;1.43;;;1.30;;
8737;SDS011;4405;49.272;8.590;2022-08-20T10:58:35;1.10;;;1.10;;
8737;SDS011;4405;49.272;8.590;2022-08-20T11:01:02;1.10;;;1.10;;
8737;SDS011;4405;49.272;8.590;2022-08-20T11:03:31;1.00;;;1.00;;
8737;SDS011;4405;49.272;8.590;2022-08-20T11:05:58;1.10;;;1.00;;
8737;SDS011;4405;49.272;8.590;2022-08-20T11:08:25;1.10;;;1.10;;
8737;SDS011;4405;49.272;8.590;2022-08-20T11:10:51;1.20;;;1.20;;
8737;SDS011;4405;49.272;8.590;2022-08-20T11:13:19;5.90;;;1.33;;
8737;SDS011;4405;49.272;8.590;2022-08-20T11:15:46;1.20;;;1.17;;
8737;SDS011;4405;49.272;8.590;2022-08-20T11:18:12;1.10;;;1.10;;
8737;SDS011;4405;49.272;8.590;2022-08-20T11:20:39;1.00;;;1.00;;
8737;SDS011;4405;49.272;8.590;2022-08-20T11:23:05;0.80;;;0.80;;
8737;SDS011;4405;49.272;8.590;2022-08-20T11:25:32;0.80;;;0.80;;
8737;SDS011;4405;49.272;8.590;2022-08-20T11:27:58;1.00;;;1.00;;
8737;SDS011;4405;49.272;8.590;2022-08-20T11:30:27;0.90;;;0.90;;
8737;SDS011;4405;49.272;8.590;2022-08-20T11:32:53;0.90;;;0.90;;
8737;SDS011;4405;49.272;8.590;2022-08-20T11:35:20;1.83;;;1.20;;
8737;SDS011;4405;49.272;8.590;2022-08-20T11:37:48;1.07;;;1.07;;
8737;SDS011;4405;49.272;8.590;2022-08-20T11:40:14;0.97;;;0.97;;
8737;SDS011;4405;49.272;8.590;2022-08-20T11:42:40;1.00;;;1.00;;
8737;SDS011;4405;49.272;8.590;2022-08-20T11:45:07;0.80;;;0.80;;
8737;SDS011;4405;49.272;8.590;2022-08-20T11:47:35;0.83;;;0.83;;
8737;SDS011;4405;49.272;8.590;2022-08-20T11:50:04;0.80;;;0.80;;
8737;SDS011;4405;49.272;8.590;2022-08-20T11:52:31;1.80;;;0.80;;
8737;SDS011;4405;49.272;8.590;2022-08-20T11:54:58;0.87;;;0.87;;
8737;SDS011;4405;49.272;8.590;2022-08-20T11:57:26;0.87;;;0.87;;
8737;SDS011;4405;49.272;8.590;2022-08-20T11:59:54;0.80;;;0.80;;
8737;SDS011;4405;49.272;8.590;2022-08-20T12:02:20;0.90;;;0.90;;
8737;SDS011;4405;49.272;8.590;2022-08-20T12:04:48;0.90;;;0.90;;
8737;SDS011;4405;49.272;8.590;2022-08-20T12:07:16;1.00;;;1.00;;
8737;SDS011;4405;49.272;8.590;2022-08-20T12:09:43;0.80;;;0.80;;
8737;SDS011;4405;49.272;8.590;2022-08-20T12:12:10;3.87;;;1.00;;
8737;SDS011;4405;49.272;8.590;2022-08-20T12:14:37;0.90;;;0.90;;
8737;SDS011;4405;49.272;8.590;2022-08-20T12:17:06;0.80;;;0.80;;
8737;SDS011;4405;49.272;8.590;2022-08-20T12:19:35;1.00;;;1.00;;
8737;SDS011;4405;49.272;8.590;2022-08-20T12:22:02;0.80;;;0.80;;
8737;SDS011;4405;49.272;8.590;2022-08-20T12:24:29;0.80;;;0.80;;
8737;SDS011;4405;49.272;8.590;2022-08-20T12:26:55;0.83;;;0.83;;
8737;SDS011;4405;49.272;8.590;2022-08-20T12:29:32;0.80;;;0.80;;
8737;SDS011;4405;49.272;8.590;2022-08-20T12:31:59;0.93;;;0.93;;
8737;SDS011;4405;49.272;8.590;2022-08-20T12:34:29;0.90;;;0.90;;
8737;SDS011;4405;49.272;8.590;2022-08-20T12:36:58;0.90;;;0.90;;
8737;SDS011;4405;49.272;8.590;2022-08-20T12:39:26;0.77;;;0.77;;
8737;SDS011;4405;49.272;8.590;2022-08-20T12:41:55;0.80;;;0.80;;
8737;SDS011;4405;49.272;8.590;2022-08-20T12:44:21;0.80;;;0.80;;
8737;SDS011;4405;49.272;8.590;2022-08-20T12:46:48;0.60;;;0.60;;
8737;SDS011;4405;49.272;8.590;2022-08-20T12:49:14;1.90;;;0.80;;
8737;SDS011;4405;49.272;8.590;2022-08-20T12:51:40;0.63;;;0.63;;
8737;SDS011;4405;49.272;8.590;2022-08-20T12:54:07;1.27;;;0.60;;
8737;SDS011;4405;49.272;8.590;2022-08-20T12:56:34;0.67;;;0.67;;
8737;SDS011;4405;49.272;8.590;2022-08-20T12:59:04;0.83;;;0.83;;
8737;SDS011;4405;49.272;8.590;2022-08-20T13:01:32;0.70;;;0.67;;
8737;SDS011;4405;49.272;8.590;2022-08-20T13:03:58;0.70;;;0.70;;
8737;SDS011;4405;49.272;8.590;2022-08-20T13:06:25;1.30;;;1.30;;
8737;SDS011;4405;49.272;8.590;2022-08-20T13:08:51;0.80;;;0.80;;
8737;SDS011;4405;49.272;8.590;2022-08-20T13:11:17;0.80;;;0.80;;
8737;SDS011;4405;49.272;8.590;2022-08-20T13:13:45;0.93;;;0.93;;
8737;SDS011;4405;49.272;8.590;2022-08-20T13:16:11;0.90;;;0.90;;
8737;SDS011;4405;49.272;8.590;2022-08-20T13:18:38;0.73;;;0.73;;
8737;SDS011;4405;49.272;8.590;2022-08-20T13:21:04;0.90;;;0.90;;
8737;SDS011;4405;49.272;8.590;2022-08-20T13:23:31;0.80;;;0.80;;
8737;SDS011;4405;49.272;8.590;2022-08-20T13:25:57;0.90;;;0.90;;
8737;SDS011;4405;49.272;8.590;2022-08-20T13:28:23;1.03;;;1.03;;
8737;SDS011;4405;49.272;8.590;2022-08-20T13:30:52;0.93;;;0.93;;
8737;SDS011;4405;49.272;8.590;2022-08-20T13:33:18;1.40;;;0.90;;
8737;SDS011;4405;49.272;8.590;2022-08-20T13:35:45;1.00;;;0.90;;
8737;SDS011;4405;49.272;8.590;2022-08-20T13:38:11;0.90;;;0.90;;
8737;SDS011;4405;49.272;8.590;2022-08-20T13:40:38;1.03;;;1.03;;
8737;SDS011;4405;49.272;8.590;2022-08-20T13:43:04;0.93;;;0.93;;
8737;SDS011;4405;49.272;8.590;2022-08-20T13:45:31;1.00;;;1.00;;
8737;SDS011;4405;49.272;8.590;2022-08-20T13:47:59;1.20;;;1.20;;
8737;SDS011;4405;49.272;8.590;2022-08-20T13:50:25;1.77;;;1.10;;
8737;SDS011;4405;49.272;8.590;2022-08-20T13:52:52;1.00;;;1.00;;
8737;SDS011;4405;49.272;8.590;2022-08-20T13:55:19;1.70;;;1.70;;
8737;SDS011;4405;49.272;8.590;2022-08-20T13:57:45;1.50;;;1.50;;
8737;SDS011;4405;49.272;8.590;2022-08-20T14:00:13;1.80;;;1.70;;
8737;SDS011;4405;49.272;8.590;2022-08-20T14:02:40;1.98;;;1.88;;
8737;SDS011;4405;49.272;8.590;2022-08-20T14:05:08;1.70;;;1.70;;
8737;SDS011;4405;49.272;8.590;2022-08-20T14:07:35;2.05;;;1.85;;
8737;SDS011;4405;49.272;8.590;2022-08-20T14:10:03;1.80;;;1.80;;
8737;SDS011;4405;49.272;8.590;2022-08-20T14:12:29;1.85;;;1.75;;
8737;SDS011;4405;49.272;8.590;2022-08-20T14:14:56;2.10;;;2.00;;
8737;SDS011;4405;49.272;8.590;2022-08-20T14:17:24;1.95;;;1.80;;
8737;SDS011;4405;49.272;8.590;2022-08-20T14:19:52;1.92;;;1.83;;
8737;SDS011;4405;49.272;8.590;2022-08-20T14:22:20;2.17;;;2.08;;
8737;SDS011;4405;49.272;8.590;2022-08-20T14:24:46;1.80;;;1.80;;
8737;SDS011;4405;49.272;8.590;2022-08-20T14:27:13;2.20;;;2.10;;
8737;SDS011;4405;49.272;8.590;2022-08-20T14:29:40;2.35;;;2.08;;
8737;SDS011;4405;49.272;8.590;2022-08-20T14:32:07;2.05;;;1.90;;
8737;SDS011;4405;49.272;8.590;2022-08-20T14:34:33;2.00;;;1.90;;
8737;SDS011;4405;49.272;8.590;2022-08-20T14:37:10;1.95;;;1.88;;
8737;SDS011;4405;49.272;8.590;2022-08-20T14:39:38;3.90;;;1.85;;
8737;SDS011;4405;49.272;8.590;2022-08-20T14:42:04;1.90;;;1.70;;
8737;SDS011;4405;49.272;8.590;2022-08-20T14:44:31;1.95;;;1.90;;
8737;SDS011;4405;49.272;8.590;2022-08-20T14:47:07;2.83;;;1.90;;
8737;SDS011;4405;49.272;8.590;2022-08-20T14:49:35;1.70;;;1.70;;
8737;SDS011;4405;49.272;8.590;2022-08-20T14:52:01;1.92;;;1.83;;
8737;SDS011;4405;49.272;8.590;2022-08-20T14:54:27;1.90;;;1.90;;
8737;SDS011;4405;49.272;8.590;2022-08-20T14:56:57;1.98;;;1.88;;
8737;SDS011;4405;49.272;8.590;2022-08-20T14:59:24;2.40;;;2.20;;
8737;SDS011;4405;49.272;8.590;2022-08-20T15:01:50;2.15;;;2.05;;
8737;SDS011;4405;49.272;8.590;2022-08-20T15:04:16;2.90;;;2.47;;
8737;SDS011;4405;49.272;8.590;2022-08-20T15:06:43;2.05;;;2.03;;
8737;SDS011;4405;49.272;8.590;2022-08-20T15:09:09;2.25;;;2.15;;
8737;SDS011;4405;49.272;8.590;2022-08-20T15:11:36;2.08;;;2.00;;
8737;SDS011;4405;49.272;8.590;2022-08-20T15:14:05;2.53;;;2.42;;
8737;SDS011;4405;49.272;8.590;2022-08-20T15:16:32;2.10;;;2.00;;